Time;durP1;ratioP1;P1;durP2;ratioP2;P2;SDS_P1;SDS_P2;PMS_P1;PMS_P2;Temp;Humidity;BMP_temperature;BMP_pressure;BME280_temperature;BME280_humidity;BME280_pressure;Samples;Min_cycle;Max_cycle;Signal;HPM_P1;HPM_P2
2021/12/22 00:01:50;;;;;;;36.40;17.50;;;;;;;;;;5100891;28;20032;-78
2021/12/22 00:04:16;;;;;;;40.08;18.95;;;;;;;;;;5100714;28;20055;-79
2021/12/22 00:06:42;;;;;;;28.92;16.52;;;;;;;;;;5097580;28;20033;-77
2021/12/22 00:09:09;;;;;;;38.65;18.17;;;;;;;;;;5087592;28;20017;-76
2021/12/22 00:11:35;;;;;;;43.97;17.77;;;;;;;;;;5096817;28;20008;-79
2021/12/22 00:14:01;;;;;;;35.10;17.13;;;;;;;;;;5100737;28;20024;-78
2021/12/22 00:16:27;;;;;;;42.03;17.63;;;;;;;;;;5082295;28;20032;-77
2021/12/22 00:18:53;;;;;;;36.30;16.52;;;;;;;;;;5077414;28;20024;-77
2021/12/22 00:21:20;;;;;;;42.25;17.48;;;;;;;;;;5076117;28;20032;-77
2021/12/22 00:23:46;;;;;;;35.33;17.98;;;;;;;;;;5077542;28;20030;-78
2021/12/22 00:26:13;;;;;;;36.97;18.20;;;;;;;;;;5077516;28;20385;-78
2021/12/22 00:28:40;;;;;;;46.92;17.85;;;;;;;;;;5078066;28;20136;-77
2021/12/22 00:31:12;;;;;;;32.00;17.45;;;;;;;;;;5059515;28;20405;-75
2021/12/22 00:33:45;;;;;;;37.58;18.08;;;;;;;;;;5076951;28;20032;-76
2021/12/22 00:36:11;;;;;;;34.60;16.73;;;;;;;;;;5075606;28;20020;-77
2021/12/22 00:38:38;;;;;;;37.33;17.73;;;;;;;;;;5058633;28;20020;-77
2021/12/22 00:41:04;;;;;;;35.72;16.85;;;;;;;;;;5075292;28;20033;-76
2021/12/22 00:43:30;;;;;;;40.10;16.80;;;;;;;;;;5074966;28;20032;-76
2021/12/22 00:45:56;;;;;;;34.88;17.17;;;;;;;;;;5075172;28;20112;-77
2021/12/22 00:48:23;;;;;;;40.20;17.77;;;;;;;;;;5076461;28;20051;-78
2021/12/22 00:50:49;;;;;;;43.97;17.73;;;;;;;;;;5060575;28;20024;-78
2021/12/22 00:53:15;;;;;;;34.53;16.95;;;;;;;;;;5078551;28;20089;-77
2021/12/22 00:55:41;;;;;;;31.00;16.15;;;;;;;;;;5060742;28;20416;-78
2021/12/22 00:58:07;;;;;;;31.30;16.95;;;;;;;;;;5058447;28;20028;-78
2021/12/22 01:00:33;;;;;;;35.78;16.70;;;;;;;;;;5076184;28;20109;-78
2021/12/22 01:02:59;;;;;;;33.30;16.88;;;;;;;;;;5076402;28;20040;-76
2021/12/22 01:05:26;;;;;;;39.00;16.20;;;;;;;;;;5076274;28;20021;-77
2021/12/22 01:07:52;;;;;;;32.65;16.30;;;;;;;;;;5077486;28;20029;-76
2021/12/22 01:10:20;;;;;;;37.88;17.90;;;;;;;;;;5076756;28;20039;-78
2021/12/22 01:12:46;;;;;;;32.05;16.63;;;;;;;;;;5078550;28;20478;-78
2021/12/22 01:15:12;;;;;;;33.10;17.25;;;;;;;;;;5076415;28;20449;-78
2021/12/22 01:17:42;;;;;;;36.25;16.27;;;;;;;;;;5084737;28;20385;-78
2021/12/22 01:20:17;;;;;;;33.17;17.30;;;;;;;;;;5072321;28;20028;-77
2021/12/22 01:25:12;;;;;;;31.88;15.80;;;;;;;;;;5077634;28;20004;-78
2021/12/22 01:27:41;;;;;;;35.85;16.52;;;;;;;;;;5076360;28;20389;-78
2021/12/22 01:30:12;;;;;;;32.00;16.60;;;;;;;;;;5077378;28;20397;-78
2021/12/22 01:32:38;;;;;;;32.80;17.15;;;;;;;;;;5076658;28;20029;-77
2021/12/22 01:35:06;;;;;;;30.23;16.65;;;;;;;;;;5077482;28;20029;-76
2021/12/22 01:37:32;;;;;;;30.42;16.65;;;;;;;;;;5076598;28;20403;-79
2021/12/22 01:40:00;;;;;;;31.95;16.13;;;;;;;;;;5077553;28;20043;-78
2021/12/22 01:42:26;;;;;;;33.40;16.27;;;;;;;;;;5077079;28;20153;-79
2021/12/22 01:50:29;;;;;;;34.70;16.90;;;;;;;;;;5078166;28;20040;-78
2021/12/22 01:52:54;;;;;;;37.63;16.17;;;;;;;;;;5076867;28;20036;-78
2021/12/22 01:55:31;;;;;;;33.83;16.83;;;;;;;;;;5077032;28;20020;-78
2021/12/22 01:58:00;;;;;;;35.83;17.50;;;;;;;;;;5060018;28;20054;-79
2021/12/22 02:00:26;;;;;;;32.55;16.88;;;;;;;;;;5087348;28;20099;-77
2021/12/22 02:02:52;;;;;;;39.13;17.40;;;;;;;;;;5087779;28;20032;-77
2021/12/22 02:05:18;;;;;;;31.75;16.92;;;;;;;;;;5088053;28;20589;-76
2021/12/22 02:07:44;;;;;;;32.72;16.92;;;;;;;;;;5089842;28;20031;-77
2021/12/22 02:10:31;;;;;;;31.25;17.02;;;;;;;;;;5067622;28;20025;-78
2021/12/22 02:12:58;;;;;;;36.55;17.73;;;;;;;;;;5077038;28;20063;-79
2021/12/22 02:15:29;;;;;;;39.97;18.17;;;;;;;;;;5074457;28;20025;-77
2021/12/22 02:17:57;;;;;;;35.65;18.08;;;;;;;;;;5073572;28;20041;-76
2021/12/22 02:20:23;;;;;;;35.58;17.77;;;;;;;;;;5074871;28;20548;-77
2021/12/22 02:22:49;;;;;;;34.53;17.65;;;;;;;;;;5058440;28;20039;-77
2021/12/22 02:25:20;;;;;;;37.35;17.33;;;;;;;;;;5074926;28;20028;-76
2021/12/22 02:27:51;;;;;;;40.50;17.73;;;;;;;;;;5074168;28;20020;-77
2021/12/22 02:30:24;;;;;;;36.05;18.90;;;;;;;;;;5073541;28;20032;-76
2021/12/22 02:33:09;;;;;;;33.53;17.88;;;;;;;;;;5073535;28;20029;-77
2021/12/22 02:35:41;;;;;;;32.22;18.15;;;;;;;;;;5073881;28;20158;-77
2021/12/22 02:38:15;;;;;;;35.80;17.85;;;;;;;;;;5056384;28;20483;-78
2021/12/22 02:40:42;;;;;;;36.58;18.00;;;;;;;;;;5055898;28;20032;-77
2021/12/22 02:43:08;;;;;;;42.35;19.15;;;;;;;;;;5083280;28;20024;-77
2021/12/22 02:45:36;;;;;;;35.42;17.60;;;;;;;;;;5082328;28;20043;-76
2021/12/22 02:48:03;;;;;;;37.35;18.30;;;;;;;;;;5061365;28;20027;-76
2021/12/22 02:50:29;;;;;;;37.65;18.27;;;;;;;;;;5074030;28;20029;-75
2021/12/22 02:55:40;;;;;;;35.83;18.35;;;;;;;;;;5087656;28;20088;-77
2021/12/22 02:58:07;;;;;;;38.65;18.80;;;;;;;;;;5076107;28;20024;-77
2021/12/22 03:05:28;;;;;;;41.10;19.02;;;;;;;;;;5076196;28;20036;-77
2021/12/22 03:07:55;;;;;;;35.20;18.88;;;;;;;;;;5056568;28;20107;-76
2021/12/22 03:10:21;;;;;;;36.28;18.88;;;;;;;;;;5077696;28;20039;-75
2021/12/22 03:12:52;;;;;;;37.67;18.20;;;;;;;;;;5084985;28;20032;-78
2021/12/22 03:15:18;;;;;;;35.15;18.05;;;;;;;;;;5087267;28;20043;-77
2021/12/22 03:17:44;;;;;;;41.95;19.02;;;;;;;;;;5072894;28;20025;-77
2021/12/22 03:20:13;;;;;;;41.45;19.13;;;;;;;;;;5072415;28;20020;-77
2021/12/22 03:22:42;;;;;;;39.17;18.30;;;;;;;;;;5054736;28;20059;-77
2021/12/22 03:25:14;;;;;;;37.35;18.30;;;;;;;;;;5054512;28;20025;-76
2021/12/22 03:27:41;;;;;;;37.55;18.67;;;;;;;;;;5072895;28;20528;-77
2021/12/22 03:30:07;;;;;;;33.22;17.17;;;;;;;;;;5055428;28;20059;-76
2021/12/22 03:32:33;;;;;;;42.05;18.73;;;;;;;;;;5073591;28;20210;-77
2021/12/22 03:34:59;;;;;;;41.30;19.10;;;;;;;;;;5072707;28;20028;-77
2021/12/22 03:37:25;;;;;;;37.85;18.10;;;;;;;;;;5071970;28;20555;-77
2021/12/22 03:39:51;;;;;;;37.00;18.30;;;;;;;;;;5072194;28;20391;-77
2021/12/22 03:42:17;;;;;;;37.38;17.58;;;;;;;;;;5072299;28;20028;-76
2021/12/22 03:44:44;;;;;;;31.45;16.58;;;;;;;;;;5072321;28;20031;-76
2021/12/22 03:47:10;;;;;;;35.78;17.23;;;;;;;;;;5054605;28;20036;-77
2021/12/22 03:49:36;;;;;;;36.08;18.45;;;;;;;;;;5075292;28;20024;-80
2021/12/22 03:52:03;;;;;;;31.38;16.85;;;;;;;;;;5082527;28;20040;-78
2021/12/22 03:54:29;;;;;;;37.42;18.65;;;;;;;;;;5087426;28;20128;-77
2021/12/22 03:56:55;;;;;;;39.80;18.25;;;;;;;;;;5086514;28;20063;-77
2021/12/22 03:59:23;;;;;;;39.63;19.05;;;;;;;;;;5082019;28;20025;-77
2021/12/22 04:01:49;;;;;;;40.10;19.17;;;;;;;;;;5080379;28;20031;-76
2021/12/22 04:04:18;;;;;;;43.08;20.63;;;;;;;;;;5078640;28;20067;-79
2021/12/22 04:06:45;;;;;;;40.08;20.63;;;;;;;;;;5079187;28;20021;-79
2021/12/22 04:09:12;;;;;;;35.20;18.38;;;;;;;;;;5081033;28;20020;-77
2021/12/22 04:11:38;;;;;;;39.72;20.00;;;;;;;;;;5076064;28;20096;-77
2021/12/22 04:14:04;;;;;;;42.55;20.50;;;;;;;;;;5100479;28;20055;-76
2021/12/22 04:16:30;;;;;;;38.05;20.38;;;;;;;;;;5096947;28;20078;-78
2021/12/22 04:18:56;;;;;;;43.88;21.33;;;;;;;;;;5095815;28;20036;-77
2021/12/22 04:21:22;;;;;;;39.75;20.55;;;;;;;;;;5100113;28;20024;-79
2021/12/22 04:23:48;;;;;;;47.97;21.55;;;;;;;;;;5082611;28;20084;-78
2021/12/22 04:26:15;;;;;;;43.58;21.45;;;;;;;;;;5100838;28;20380;-78
2021/12/22 04:28:41;;;;;;;38.97;20.98;;;;;;;;;;5099384;28;20021;-80
2021/12/22 04:31:07;;;;;;;44.20;20.33;;;;;;;;;;5099473;28;20107;-79
2021/12/22 04:33:33;;;;;;;43.50;21.02;;;;;;;;;;5081142;28;20026;-80
2021/12/22 04:35:59;;;;;;;42.55;20.67;;;;;;;;;;5099711;28;20024;-79
2021/12/22 04:38:25;;;;;;;48.10;20.75;;;;;;;;;;5098220;28;20024;-79
2021/12/22 04:40:51;;;;;;;52.13;21.50;;;;;;;;;;5099338;28;20452;-78
2021/12/22 04:43:17;;;;;;;48.97;21.35;;;;;;;;;;5098916;28;20028;-78
2021/12/22 04:45:43;;;;;;;42.25;21.27;;;;;;;;;;5099466;28;20035;-79
2021/12/22 04:48:10;;;;;;;45.08;21.15;;;;;;;;;;5099787;28;20032;-79
2021/12/22 04:50:36;;;;;;;43.47;20.75;;;;;;;;;;5100282;28;20019;-77
2021/12/22 04:53:17;;;;;;;41.92;20.30;;;;;;;;;;5100546;28;20513;-78
2021/12/22 04:55:43;;;;;;;46.00;20.65;;;;;;;;;;5083473;28;20024;-78
2021/12/22 04:58:09;;;;;;;47.15;19.55;;;;;;;;;;5087191;28;20028;-78
2021/12/22 05:00:37;;;;;;;43.60;20.52;;;;;;;;;;5114168;28;20024;-77
2021/12/22 05:03:03;;;;;;;47.65;21.60;;;;;;;;;;5113022;28;20029;-76
2021/12/22 05:05:29;;;;;;;42.10;21.13;;;;;;;;;;5114154;28;20093;-79
2021/12/22 05:07:55;;;;;;;60.58;24.85;;;;;;;;;;5083559;28;20023;-79
2021/12/22 05:10:22;;;;;;;44.80;21.00;;;;;;;;;;5102972;28;20074;-80
2021/12/22 05:12:49;;;;;;;43.60;19.55;;;;;;;;;;5082831;28;20038;-77
2021/12/22 05:15:20;;;;;;;40.55;19.00;;;;;;;;;;5102657;28;20087;-77
2021/12/22 05:20:14;;;;;;;40.78;18.10;;;;;;;;;;5112468;28;20057;-77
2021/12/22 05:22:40;;;;;;;42.00;17.67;;;;;;;;;;5095290;28;20032;-78
2021/12/22 05:25:07;;;;;;;38.63;17.52;;;;;;;;;;5092092;28;20043;-78
2021/12/22 05:27:33;;;;;;;38.08;17.55;;;;;;;;;;5082730;28;20032;-79
2021/12/22 05:29:59;;;;;;;39.22;17.67;;;;;;;;;;5105510;28;20083;-79
2021/12/22 05:32:31;;;;;;;40.25;19.35;;;;;;;;;;5104060;28;20051;-77
2021/12/22 05:34:57;;;;;;;46.38;21.75;;;;;;;;;;5099678;28;20099;-77
2021/12/22 05:37:23;;;;;;;36.50;18.45;;;;;;;;;;5098346;28;20024;-78
2021/12/22 05:39:49;;;;;;;38.65;18.65;;;;;;;;;;5099505;28;20024;-77
2021/12/22 05:42:15;;;;;;;43.08;19.17;;;;;;;;;;5080162;28;20393;-76
2021/12/22 05:44:42;;;;;;;35.72;19.30;;;;;;;;;;5079089;28;20027;-78
2021/12/22 05:47:08;;;;;;;39.60;18.42;;;;;;;;;;5095400;28;20020;-77
2021/12/22 05:49:34;;;;;;;33.92;17.75;;;;;;;;;;5099650;28;20087;-78
2021/12/22 05:52:00;;;;;;;35.25;18.20;;;;;;;;;;5076548;28;20128;-75
2021/12/22 05:54:26;;;;;;;42.72;19.33;;;;;;;;;;5094070;28;20074;-76
2021/12/22 05:56:52;;;;;;;39.15;18.50;;;;;;;;;;5094917;28;20024;-76
2021/12/22 05:59:18;;;;;;;33.47;18.23;;;;;;;;;;5096284;28;20024;-77
2021/12/22 06:01:44;;;;;;;36.65;18.65;;;;;;;;;;5095610;28;20044;-77
2021/12/22 06:04:10;;;;;;;37.83;18.05;;;;;;;;;;5095033;28;20028;-77
2021/12/22 06:06:36;;;;;;;38.40;18.05;;;;;;;;;;5094575;28;20020;-79
2021/12/22 06:09:02;;;;;;;36.15;18.17;;;;;;;;;;5095397;28;20076;-78
2021/12/22 06:11:28;;;;;;;42.05;18.25;;;;;;;;;;5094922;28;20085;-77
2021/12/22 06:13:57;;;;;;;36.85;18.45;;;;;;;;;;5094400;28;20472;-77
2021/12/22 06:16:34;;;;;;;40.72;18.35;;;;;;;;;;5095454;28;20024;-78
2021/12/22 06:19:04;;;;;;;39.50;18.85;;;;;;;;;;5096835;28;20031;-77
2021/12/22 06:21:31;;;;;;;40.95;19.30;;;;;;;;;;5098186;28;20018;-78
2021/12/22 06:23:57;;;;;;;50.72;18.92;;;;;;;;;;5098174;28;20050;-79
2021/12/22 06:26:23;;;;;;;39.90;19.17;;;;;;;;;;5097073;28;20436;-79
2021/12/22 06:28:50;;;;;;;39.97;20.48;;;;;;;;;;5099193;28;20055;-78
2021/12/22 06:31:16;;;;;;;46.00;19.42;;;;;;;;;;5098373;28;20495;-80
2021/12/22 06:33:42;;;;;;;44.78;19.83;;;;;;;;;;5098706;28;20024;-79
2021/12/22 06:36:08;;;;;;;48.35;20.52;;;;;;;;;;5097180;28;20154;-80
2021/12/22 06:38:34;;;;;;;42.33;20.52;;;;;;;;;;5101833;28;20027;-79
2021/12/22 06:41:02;;;;;;;40.75;18.77;;;;;;;;;;5100700;28;20031;-81
2021/12/22 06:43:28;;;;;;;44.30;19.90;;;;;;;;;;5099757;28;20102;-79
2021/12/22 06:45:54;;;;;;;42.97;19.15;;;;;;;;;;5099548;28;20083;-78
2021/12/22 06:48:20;;;;;;;43.40;18.67;;;;;;;;;;5099869;28;20380;-78
2021/12/22 06:50:46;;;;;;;43.45;19.83;;;;;;;;;;5099532;28;20031;-78
2021/12/22 06:53:12;;;;;;;42.28;20.10;;;;;;;;;;5113541;28;20042;-79
2021/12/22 06:55:38;;;;;;;39.03;19.45;;;;;;;;;;5081230;28;20036;-78
2021/12/22 06:58:04;;;;;;;39.00;19.15;;;;;;;;;;5099558;28;20024;-80
2021/12/22 07:00:31;;;;;;;40.10;19.42;;;;;;;;;;5100599;28;20031;-77
2021/12/22 07:02:58;;;;;;;45.97;21.23;;;;;;;;;;5103750;28;20500;-78
2021/12/22 07:05:24;;;;;;;43.85;22.08;;;;;;;;;;5104786;28;20080;-77
2021/12/22 07:07:50;;;;;;;42.58;20.23;;;;;;;;;;5102476;28;20085;-79
2021/12/22 07:10:16;;;;;;;45.08;20.92;;;;;;;;;;5099690;28;20048;-78
2021/12/22 07:12:45;;;;;;;41.50;19.33;;;;;;;;;;5099985;28;20392;-79
2021/12/22 07:15:13;;;;;;;42.83;19.88;;;;;;;;;;5105491;28;20061;-80
2021/12/22 07:17:39;;;;;;;43.22;19.58;;;;;;;;;;5104041;28;20043;-81
2021/12/22 07:20:05;;;;;;;45.38;20.17;;;;;;;;;;5089234;28;20048;-78
2021/12/22 07:22:32;;;;;;;45.83;21.63;;;;;;;;;;5087020;28;20488;-78
2021/12/22 07:24:58;;;;;;;49.72;21.08;;;;;;;;;;5102462;28;20042;-78
2021/12/22 07:27:24;;;;;;;46.38;22.15;;;;;;;;;;5106203;28;20043;-78
2021/12/22 07:29:50;;;;;;;51.03;20.35;;;;;;;;;;5088149;28;20504;-78
2021/12/22 07:32:16;;;;;;;44.53;20.15;;;;;;;;;;5081472;28;20032;-79
2021/12/22 07:34:47;;;;;;;48.55;19.90;;;;;;;;;;5080357;28;20028;-79
2021/12/22 07:37:23;;;;;;;46.05;20.52;;;;;;;;;;5074420;28;20024;-78
2021/12/22 07:39:49;;;;;;;50.83;20.90;;;;;;;;;;5091473;28;20035;-81
2021/12/22 07:42:15;;;;;;;60.20;24.63;;;;;;;;;;5089724;28;20037;-79
2021/12/22 07:44:41;;;;;;;51.35;21.95;;;;;;;;;;5062945;28;20024;-78
2021/12/22 07:47:07;;;;;;;53.95;21.88;;;;;;;;;;5063369;28;20033;-79
2021/12/22 07:49:33;;;;;;;54.97;23.48;;;;;;;;;;5087654;28;20080;-79
2021/12/22 07:51:59;;;;;;;52.33;21.88;;;;;;;;;;5082334;28;20049;-79
2021/12/22 07:54:25;;;;;;;50.80;22.17;;;;;;;;;;5064825;28;20024;-78
2021/12/22 07:56:51;;;;;;;54.67;22.45;;;;;;;;;;5080001;28;20046;-79
2021/12/22 07:59:17;;;;;;;53.40;22.20;;;;;;;;;;5083937;28;20020;-80
2021/12/22 08:01:43;;;;;;;59.80;25.63;;;;;;;;;;5088178;28;20063;-78
2021/12/22 08:04:09;;;;;;;59.88;25.15;;;;;;;;;;5091617;28;20031;-79
2021/12/22 08:06:35;;;;;;;60.13;23.90;;;;;;;;;;5074895;28;20021;-78
2021/12/22 08:09:01;;;;;;;69.95;25.38;;;;;;;;;;5094322;28;20015;-79
2021/12/22 08:11:27;;;;;;;56.20;23.45;;;;;;;;;;5098832;28;20031;-78
2021/12/22 08:13:53;;;;;;;60.70;22.77;;;;;;;;;;5099531;28;20044;-79
2021/12/22 08:16:19;;;;;;;51.25;22.17;;;;;;;;;;5090316;28;20028;-78
2021/12/22 08:18:45;;;;;;;50.60;22.40;;;;;;;;;;5087463;28;20025;-77
2021/12/22 08:21:11;;;;;;;57.40;21.63;;;;;;;;;;5089885;28;20039;-79
2021/12/22 08:23:36;;;;;;;58.33;22.65;;;;;;;;;;5087801;28;20100;-79
2021/12/22 08:26:03;;;;;;;54.70;22.08;;;;;;;;;;5084905;28;20024;-79
2021/12/22 08:28:29;;;;;;;59.85;23.80;;;;;;;;;;5085117;28;20064;-80
2021/12/22 08:30:55;;;;;;;49.00;21.95;;;;;;;;;;5082623;28;20021;-78
2021/12/22 08:33:24;;;;;;;47.13;21.85;;;;;;;;;;5084011;28;20025;-78
2021/12/22 08:38:53;;;;;;;54.40;23.25;;;;;;;;;;5083835;28;20055;-78
2021/12/22 08:41:26;;;;;;;64.82;24.05;;;;;;;;;;5085257;28;20028;-79
2021/12/22 08:43:53;;;;;;;45.88;17.42;;;;;;;;;;5086875;28;20040;-79
2021/12/22 08:46:19;;;;;;;56.00;23.75;;;;;;;;;;5087851;28;20021;-79
2021/12/22 08:48:45;;;;;;;61.08;24.17;;;;;;;;;;5070033;28;20012;-79
2021/12/22 08:51:12;;;;;;;59.22;25.25;;;;;;;;;;5087429;28;20058;-79
2021/12/22 08:53:38;;;;;;;62.97;26.23;;;;;;;;;;5079211;28;20037;-78
2021/12/22 08:56:04;;;;;;;65.35;26.83;;;;;;;;;;5098325;28;20035;-79
2021/12/22 08:58:30;;;;;;;73.55;28.38;;;;;;;;;;5099356;28;20017;-77
2021/12/22 09:00:56;;;;;;;63.90;26.35;;;;;;;;;;5097616;28;20050;-79
2021/12/22 09:03:22;;;;;;;72.88;29.38;;;;;;;;;;5086716;28;20016;-81
2021/12/22 09:05:48;;;;;;;82.78;29.50;;;;;;;;;;5086806;28;20369;-78
2021/12/22 09:08:14;;;;;;;69.75;28.60;;;;;;;;;;5071890;28;20096;-78
2021/12/22 09:10:40;;;;;;;78.55;30.88;;;;;;;;;;5090804;28;20577;-78
2021/12/22 09:13:06;;;;;;;79.75;29.73;;;;;;;;;;5090391;28;20028;-79
2021/12/22 09:15:32;;;;;;;79.00;29.15;;;;;;;;;;5090193;28;20035;-79
2021/12/22 09:17:59;;;;;;;79.45;30.48;;;;;;;;;;5088239;28;20099;-78
2021/12/22 09:20:25;;;;;;;75.18;29.75;;;;;;;;;;5089222;28;20025;-78
2021/12/22 09:22:51;;;;;;;80.80;30.40;;;;;;;;;;5090485;28;20021;-77
2021/12/22 09:25:17;;;;;;;79.53;29.67;;;;;;;;;;5069192;28;20115;-78
2021/12/22 09:27:43;;;;;;;74.22;30.33;;;;;;;;;;5065979;28;20031;-81
2021/12/22 09:30:09;;;;;;;84.45;32.70;;;;;;;;;;5086402;28;20453;-80
2021/12/22 09:32:35;;;;;;;80.93;31.33;;;;;;;;;;5082174;28;20036;-78
2021/12/22 09:35:01;;;;;;;78.40;30.90;;;;;;;;;;5064807;28;20115;-79
2021/12/22 09:37:27;;;;;;;72.55;30.92;;;;;;;;;;5083929;28;20111;-79
2021/12/22 09:39:53;;;;;;;73.18;30.67;;;;;;;;;;5085241;28;20024;-78
2021/12/22 09:42:19;;;;;;;93.50;34.97;;;;;;;;;;5083020;28;20028;-79
2021/12/22 09:44:46;;;;;;;124.78;39.95;;;;;;;;;;5084961;28;20028;-79
2021/12/22 09:47:14;;;;;;;72.43;30.30;;;;;;;;;;5082686;28;20017;-79
2021/12/22 09:52:17;;;;;;;63.92;25.83;;;;;;;;;;5079634;28;20033;-79
2021/12/22 09:54:44;;;;;;;66.50;28.35;;;;;;;;;;5068403;28;20036;-79
2021/12/22 09:57:11;;;;;;;59.97;25.10;;;;;;;;;;5082576;28;20012;-79
2021/12/22 09:59:37;;;;;;;55.22;24.30;;;;;;;;;;5086594;28;20068;-79
2021/12/22 10:02:04;;;;;;;60.35;24.13;;;;;;;;;;5087338;28;20029;-79
2021/12/22 10:04:30;;;;;;;55.45;22.55;;;;;;;;;;5067255;28;20031;-79
2021/12/22 10:06:56;;;;;;;46.10;22.10;;;;;;;;;;5084066;28;20025;-79
2021/12/22 10:09:23;;;;;;;45.90;21.58;;;;;;;;;;5080553;28;20044;-78
2021/12/22 10:11:49;;;;;;;51.33;22.42;;;;;;;;;;5082596;28;20025;-78
2021/12/22 10:14:16;;;;;;;51.10;21.63;;;;;;;;;;5082968;28;20027;-78
2021/12/22 10:16:47;;;;;;;78.15;32.55;;;;;;;;;;5085547;28;20025;-79
2021/12/22 10:19:13;;;;;;;64.95;28.15;;;;;;;;;;5087161;28;20031;-78
2021/12/22 10:21:58;;;;;;;64.15;26.13;;;;;;;;;;5080891;28;20017;-78
2021/12/22 10:24:54;;;;;;;54.75;22.48;;;;;;;;;;5082212;28;20016;-79
2021/12/22 10:27:20;;;;;;;56.28;22.88;;;;;;;;;;5069015;28;20052;-78
2021/12/22 10:29:47;;;;;;;58.30;23.00;;;;;;;;;;5068526;28;20074;-81
2021/12/22 10:32:14;;;;;;;61.85;25.63;;;;;;;;;;5085551;28;20442;-80
2021/12/22 10:34:54;;;;;;;64.93;24.98;;;;;;;;;;5086997;28;20029;-79
2021/12/22 10:37:39;;;;;;;61.28;26.25;;;;;;;;;;5067057;28;20021;-76
2021/12/22 10:40:05;;;;;;;;;;;;;;;;;;5084435;28;20456;-77
2021/12/22 10:42:42;;;;;;;63.70;25.02;;;;;;;;;;5091452;28;20216;-79
2021/12/22 10:45:12;;;;;;;58.10;23.85;;;;;;;;;;5084021;28;20036;-78
2021/12/22 10:49:14;;;;;;;59.70;23.92;;;;;;;;;;5078451;28;20043;-76
2021/12/22 10:50:32;;;;;;;64.97;26.35;;;;;;;;;;5079351;28;20024;-76
2021/12/22 10:52:58;;;;;;;58.47;26.42;;;;;;;;;;5082169;28;20052;-77
2021/12/22 10:55:24;;;;;;;65.38;28.30;;;;;;;;;;5082953;28;20088;-77
2021/12/22 10:57:50;;;;;;;63.22;27.48;;;;;;;;;;5082206;28;20021;-76
2021/12/22 11:00:21;;;;;;;63.58;27.10;;;;;;;;;;5088051;28;20478;-79
2021/12/22 11:03:04;;;;;;;65.72;28.05;;;;;;;;;;5087471;28;20042;-80
2021/12/22 11:05:30;;;;;;;67.18;27.45;;;;;;;;;;5086574;28;20030;-79
2021/12/22 11:07:58;;;;;;;64.95;27.23;;;;;;;;;;5085254;28;20040;-78
2021/12/22 11:10:27;;;;;;;61.17;27.17;;;;;;;;;;5087828;28;20024;-80
2021/12/22 11:13:01;;;;;;;63.78;26.02;;;;;;;;;;5086571;28;20070;-78
2021/12/22 11:15:27;;;;;;;61.28;25.88;;;;;;;;;;5086539;28;20100;-78
2021/12/22 11:17:53;;;;;;;58.15;25.95;;;;;;;;;;5087566;28;20025;-79
2021/12/22 11:20:22;;;;;;;56.38;24.65;;;;;;;;;;5080683;28;20028;-78
2021/12/22 11:25:17;;;;;;;63.38;27.50;;;;;;;;;;5083273;28;20040;-78
2021/12/22 11:27:43;;;;;;;60.38;25.38;;;;;;;;;;5080349;28;20043;-79
2021/12/22 11:30:10;;;;;;;63.22;26.38;;;;;;;;;;5087662;28;20099;-78
2021/12/22 11:32:36;;;;;;;60.00;23.60;;;;;;;;;;5086529;28;20037;-79
2021/12/22 11:35:06;;;;;;;58.42;24.67;;;;;;;;;;5089014;28;20025;-78
2021/12/22 11:37:33;;;;;;;58.55;24.83;;;;;;;;;;5088989;28;20268;-78
2021/12/22 11:39:59;;;;;;;61.42;25.88;;;;;;;;;;5089954;28;20056;-80
2021/12/22 11:42:30;;;;;;;69.82;26.45;;;;;;;;;;5069470;28;20032;-77
2021/12/22 11:44:59;;;;;;;61.13;25.80;;;;;;;;;;5086321;28;20033;-78
2021/12/22 11:47:25;;;;;;;63.75;26.00;;;;;;;;;;5099527;28;20040;-78
2021/12/22 11:49:59;;;;;;;61.30;27.17;;;;;;;;;;5100587;28;20032;-77
2021/12/22 11:52:37;;;;;;;61.47;25.83;;;;;;;;;;5100461;28;20080;-79
2021/12/22 11:55:08;;;;;;;60.15;24.02;;;;;;;;;;5100597;28;20084;-79
2021/12/22 11:57:34;;;;;;;57.75;24.65;;;;;;;;;;5101063;28;20077;-78
2021/12/22 12:00:20;;;;;;;64.25;25.58;;;;;;;;;;5098908;28;20036;-80
2021/12/22 12:02:46;;;;;;;62.08;25.60;;;;;;;;;;5088983;28;20028;-78
2021/12/22 12:05:15;;;;;;;62.75;26.42;;;;;;;;;;5092042;28;20059;-77
2021/12/22 12:07:44;;;;;;;66.10;27.52;;;;;;;;;;5076172;28;20095;-78
2021/12/22 12:10:28;;;;;;;73.05;28.13;;;;;;;;;;5090454;28;20035;-78
2021/12/22 12:13:00;;;;;;;63.38;26.42;;;;;;;;;;5092734;28;20442;-78
2021/12/22 12:15:52;;;;;;;57.72;25.73;;;;;;;;;;5092905;28;20032;-79
2021/12/22 12:21:42;;;;;;;58.90;25.23;;;;;;;;;;5086809;28;20031;-78
2021/12/22 12:24:08;;;;;;;;;;;;;;;;;;5089735;28;20271;-77
2021/12/22 12:26:40;;;;;;;63.47;25.88;;;;;;;;;;5085936;28;19904;-79
2021/12/22 12:29:06;;;;;;;67.20;26.25;;;;;;;;;;5091791;28;20017;-79
2021/12/22 12:31:39;;;;;;;64.10;28.80;;;;;;;;;;5092793;28;20040;-81
2021/12/22 12:34:22;;;;;;;74.73;28.77;;;;;;;;;;5093161;28;20017;-81
2021/12/22 12:36:48;;;;;;;66.72;28.55;;;;;;;;;;5091758;28;20028;-80
2021/12/22 12:39:14;;;;;;;71.15;30.13;;;;;;;;;;5093612;28;20032;-79
2021/12/22 12:41:59;;;;;;;79.03;30.67;;;;;;;;;;5093552;28;20020;-78
2021/12/22 12:44:25;;;;;;;;;;;;;;;;;;5090225;28;20035;-79
2021/12/22 12:46:51;;;;;;;70.28;28.65;;;;;;;;;;5086552;28;19904;-77
2021/12/22 12:49:17;;;;;;;69.53;29.17;;;;;;;;;;5090214;28;20047;-81
2021/12/22 12:51:45;;;;;;;74.35;30.27;;;;;;;;;;5093224;28;20032;-78
2021/12/22 12:54:17;;;;;;;68.72;29.35;;;;;;;;;;5089979;28;20024;-79
2021/12/22 12:56:45;;;;;;;76.60;32.28;;;;;;;;;;5091183;28;20032;-79
2021/12/22 12:59:15;;;;;;;83.72;33.28;;;;;;;;;;5087050;28;20032;-79
2021/12/22 13:01:49;;;;;;;74.07;31.80;;;;;;;;;;5068880;28;20040;-80
2021/12/22 13:04:20;;;;;;;83.97;34.85;;;;;;;;;;5089241;28;20048;-79
2021/12/22 13:06:46;;;;;;;71.80;31.42;;;;;;;;;;5090463;28;20017;-78
2021/12/22 13:09:22;;;;;;;79.20;33.60;;;;;;;;;;5089961;28;20025;-77
2021/12/22 13:11:58;;;;;;;79.53;33.13;;;;;;;;;;5093919;28;20032;-78
2021/12/22 13:17:12;;;;;;;72.88;32.15;;;;;;;;;;5096489;28;20031;-80
2021/12/22 13:19:47;;;;;;;81.15;34.35;;;;;;;;;;5088261;28;20064;-79
2021/12/22 13:22:17;;;;;;;83.03;36.88;;;;;;;;;;5075465;28;20036;-77
2021/12/22 13:24:43;;;;;;;74.53;32.25;;;;;;;;;;5088891;28;20055;-78
2021/12/22 13:27:09;;;;;;;76.07;32.30;;;;;;;;;;5083491;28;20035;-78
2021/12/22 13:29:36;;;;;;;78.25;33.38;;;;;;;;;;5085725;28;20108;-78
2021/12/22 13:32:11;;;;;;;83.07;35.42;;;;;;;;;;5087629;28;20021;-80
2021/12/22 13:34:46;;;;;;;81.30;33.60;;;;;;;;;;5089063;28;20029;-80
2021/12/22 13:37:12;;;;;;;71.20;32.47;;;;;;;;;;5088520;28;20031;-78
2021/12/22 13:39:45;;;;;;;74.97;31.95;;;;;;;;;;5085974;28;20365;-78
2021/12/22 13:42:12;;;;;;;84.40;33.22;;;;;;;;;;5068836;28;20044;-79
2021/12/22 13:44:39;;;;;;;75.95;33.55;;;;;;;;;;5092006;28;20111;-77
2021/12/22 13:47:05;;;;;;;73.07;32.05;;;;;;;;;;5077703;28;20044;-77
2021/12/22 13:49:32;;;;;;;79.05;33.17;;;;;;;;;;5098764;28;20100;-80
2021/12/22 13:51:58;;;;;;;79.97;35.13;;;;;;;;;;5096699;28;20032;-77
2021/12/22 13:54:29;;;;;;;85.28;34.95;;;;;;;;;;5077236;28;20047;-79
2021/12/22 13:57:00;;;;;;;90.10;36.33;;;;;;;;;;5067441;28;20031;-78
2021/12/22 13:59:29;;;;;;;88.95;35.70;;;;;;;;;;5086695;28;20046;-82
2021/12/22 14:01:56;;;;;;;91.18;35.95;;;;;;;;;;5066453;28;20033;-78
2021/12/22 14:04:33;;;;;;;78.70;34.70;;;;;;;;;;5088215;28;20024;-76
2021/12/22 14:07:10;;;;;;;88.65;36.72;;;;;;;;;;5093983;28;20046;-78
2021/12/22 14:09:43;;;;;;;78.43;33.55;;;;;;;;;;5105282;28;20054;-79
2021/12/22 14:12:13;;;;;;;80.97;34.28;;;;;;;;;;5105522;28;20028;-79
2021/12/22 14:14:46;;;;;;;80.18;33.28;;;;;;;;;;5101192;28;20426;-78
2021/12/22 14:17:32;;;;;;;76.35;32.03;;;;;;;;;;5105019;28;20535;-77
2021/12/22 14:20:14;;;;;;;86.30;35.88;;;;;;;;;;5103422;28;20020;-78
2021/12/22 14:22:42;;;;;;;85.05;34.90;;;;;;;;;;5107191;28;20083;-78
2021/12/22 14:25:11;;;;;;;155.10;63.20;;;;;;;;;;5105008;28;20036;-77
2021/12/22 14:27:42;;;;;;;114.85;44.70;;;;;;;;;;5100975;28;20572;-79
2021/12/22 14:30:26;;;;;;;84.15;36.00;;;;;;;;;;5086209;28;20373;-80
2021/12/22 14:32:57;;;;;;;62.80;27.88;;;;;;;;;;5109535;28;20100;-80
2021/12/22 14:35:24;;;;;;;92.25;35.88;;;;;;;;;;5111371;28;20027;-79
2021/12/22 14:38:04;;;;;;;83.30;35.50;;;;;;;;;;5108462;28;20039;-79
2021/12/22 14:40:31;;;;;;;83.88;36.65;;;;;;;;;;5108292;28;20077;-79
2021/12/22 14:42:57;;;;;;;91.00;39.10;;;;;;;;;;5091068;28;20158;-81
2021/12/22 14:45:27;;;;;;;87.95;37.65;;;;;;;;;;5107849;28;20028;-79
2021/12/22 14:48:04;;;;;;;88.13;37.50;;;;;;;;;;5108627;28;20030;-79
2021/12/22 14:50:30;;;;;;;94.60;35.75;;;;;;;;;;5088246;28;20035;-80
2021/12/22 14:53:00;;;;;;;91.45;37.45;;;;;;;;;;5107227;28;20040;-79
2021/12/22 14:55:36;;;;;;;89.60;38.53;;;;;;;;;;5106314;28;20017;-79
2021/12/22 14:58:02;;;;;;;89.82;36.70;;;;;;;;;;5107368;28;20032;-77